createdAt,value
2019-03-05T00:00:31.808Z,4.5
2019-03-05T00:01:38.738Z,4.4
2019-03-05T00:02:45.948Z,4.4
2019-03-05T00:03:52.863Z,4.4
2019-03-05T00:05:00.068Z,4.4
2019-03-05T00:06:07.312Z,4.4
2019-03-05T00:07:14.514Z,4.5
2019-03-05T00:08:21.710Z,4.5
2019-03-05T00:09:28.929Z,4.5
2019-03-05T00:10:35.855Z,4.4
2019-03-05T00:11:43.053Z,4.5
2019-03-05T00:12:50.253Z,4.5
2019-03-05T00:13:57.448Z,4.5
2019-03-05T00:15:04.406Z,4.5
2019-03-05T00:16:11.608Z,4.5
2019-03-05T00:17:18.559Z,4.5
2019-03-05T00:18:25.760Z,4.5
2019-03-05T00:19:32.706Z,4.4
2019-03-05T00:20:39.649Z,4.5
2019-03-05T00:21:46.566Z,4.5
2019-03-05T00:22:53.766Z,4.5
2019-03-05T00:24:00.971Z,4.5
2019-03-05T00:25:08.177Z,4.5
2019-03-05T00:26:15.387Z,4.5
2019-03-05T00:27:22.584Z,4.5
2019-03-05T00:28:29.802Z,4.6
2019-03-05T00:29:37.009Z,4.6
2019-03-05T00:30:44.226Z,4.6
2019-03-05T00:31:51.166Z,4.6
2019-03-05T00:32:58.366Z,4.6
2019-03-05T00:34:05.570Z,4.7
2019-03-05T00:35:12.503Z,4.6
2019-03-05T00:36:19.714Z,4.6
2019-03-05T00:37:26.914Z,4.6
2019-03-05T00:38:34.117Z,4.6
2019-03-05T00:39:41.341Z,4.6
2019-03-05T00:40:48.273Z,4.7
2019-03-05T00:41:55.219Z,4.7
2019-03-05T00:43:02.542Z,4.7
2019-03-05T00:44:09.744Z,4.7
2019-03-05T00:45:16.401Z,4.7
2019-03-05T00:46:23.614Z,4.6
2019-03-05T00:47:30.812Z,4.6
2019-03-05T00:48:38.018Z,4.7
2019-03-05T00:49:44.954Z,4.7
2019-03-05T00:50:51.891Z,4.8
2019-03-05T00:51:58.816Z,4.8
2019-03-05T00:53:06.024Z,4.8
2019-03-05T00:54:13.226Z,4.8
2019-03-05T00:55:20.449Z,4.8
2019-03-05T00:56:27.661Z,4.7
2019-03-05T00:57:34.877Z,4.7
2019-03-05T00:58:41.816Z,4.7
2019-03-05T00:59:48.747Z,4.7
2019-03-05T01:00:55.943Z,4.7
2019-03-05T01:02:02.876Z,4.7
2019-03-05T01:03:10.074Z,4.7
2019-03-05T01:04:17.273Z,4.6
2019-03-05T01:05:24.483Z,4.6
2019-03-05T01:06:31.703Z,4.6
2019-03-05T01:07:38.922Z,4.5
2019-03-05T01:08:46.133Z,4.5
2019-03-05T01:09:53.335Z,4.5
2019-03-05T01:11:00.265Z,4.4
2019-03-05T01:12:07.467Z,4.4
2019-03-05T01:13:14.675Z,4.3
2019-03-05T01:14:21.951Z,4.3
2019-03-05T01:15:29.205Z,4.3
2019-03-05T01:16:36.413Z,4.3
2019-03-05T01:17:43.630Z,4.3
2019-03-05T01:18:50.831Z,4.3
2019-03-05T01:19:57.776Z,4.3
2019-03-05T01:21:04.995Z,4.3
2019-03-05T01:22:11.963Z,4.3
2019-03-05T01:23:18.908Z,4.3
2019-03-05T01:24:26.124Z,4.3
2019-03-05T01:25:33.348Z,4.4
2019-03-05T01:26:40.558Z,4.4
2019-03-05T01:27:47.207Z,4.4
2019-03-05T01:28:54.142Z,4.3
2019-03-05T01:30:01.357Z,4.4
2019-03-05T01:31:08.560Z,4.4
2019-03-05T01:32:15.762Z,4.4
2019-03-05T01:33:22.709Z,4.3
2019-03-05T01:34:29.919Z,4.4
2019-03-05T01:35:36.585Z,4.4
2019-03-05T01:36:43.793Z,4.4
2019-03-05T01:37:50.731Z,4.4
2019-03-05T01:38:57.943Z,4.5
2019-03-05T01:40:05.146Z,4.5
2019-03-05T01:41:12.076Z,4.5
2019-03-05T01:42:19.280Z,4.5
2019-03-05T01:43:26.207Z,4.5
2019-03-05T01:44:32.871Z,4.5
2019-03-05T01:45:40.079Z,4.5
2019-03-05T01:46:47.304Z,4.4
2019-03-05T01:47:54.225Z,4.4
2019-03-05T01:49:00.894Z,4.4
2019-03-05T01:50:08.099Z,4.4
2019-03-05T01:51:15.309Z,4.4
2019-03-05T01:52:22.229Z,4.4
2019-03-05T01:53:29.162Z,4.4
2019-03-05T01:54:36.358Z,4.4
2019-03-05T01:55:43.819Z,4.3
2019-03-05T01:56:50.817Z,4.3
2019-03-05T01:57:57.759Z,4.2
2019-03-05T01:59:04.963Z,4.2
2019-03-05T02:00:12.454Z,4.2
2019-03-05T02:01:19.659Z,4.1
2019-03-05T02:02:26.589Z,4.1
2019-03-05T02:03:33.797Z,4.1
2019-03-05T02:04:41.004Z,4.1
2019-03-05T02:05:48.208Z,4
2019-03-05T02:06:55.408Z,4
2019-03-05T02:08:02.618Z,4
2019-03-05T02:09:09.570Z,4
2019-03-05T02:10:16.766Z,4
2019-03-05T02:11:23.984Z,4
2019-03-05T02:12:31.187Z,4
2019-03-05T02:13:38.396Z,4
2019-03-05T02:14:45.603Z,4
2019-03-05T02:15:52.254Z,3.9
2019-03-05T02:16:59.463Z,3.9
2019-03-05T02:18:06.394Z,3.9
2019-03-05T02:19:13.600Z,3.9
2019-03-05T02:20:20.548Z,3.9
2019-03-05T02:21:27.750Z,3.9
2019-03-05T02:22:34.691Z,3.9
2019-03-05T02:23:41.902Z,3.9
2019-03-05T02:24:49.110Z,3.9
2019-03-05T02:25:56.316Z,3.9
2019-03-05T02:27:03.518Z,3.9
2019-03-05T02:28:10.724Z,3.9
2019-03-05T02:29:17.926Z,3.9
2019-03-05T02:30:25.125Z,3.9
2019-03-05T02:31:32.339Z,3.9
2019-03-05T02:32:39.544Z,3.9
2019-03-05T02:33:46.746Z,3.9
2019-03-05T02:34:53.951Z,3.9
2019-03-05T02:36:01.145Z,3.9
2019-03-05T02:37:08.351Z,3.8
2019-03-05T02:38:15.550Z,3.8
2019-03-05T02:39:22.501Z,3.8
2019-03-05T02:40:29.501Z,3.8
2019-03-05T02:41:36.710Z,3.8
2019-03-05T02:42:43.919Z,3.8
2019-03-05T02:43:50.572Z,3.7
2019-03-05T02:44:57.783Z,3.7
2019-03-05T02:46:04.986Z,3.7
2019-03-05T02:47:11.914Z,3.8
2019-03-05T02:48:19.117Z,3.8
2019-03-05T02:49:26.320Z,3.8
2019-03-05T02:50:33.522Z,3.8
2019-03-05T02:51:40.722Z,3.8
2019-03-05T02:52:47.651Z,3.8
2019-03-05T02:53:54.647Z,3.8
2019-03-05T02:55:01.866Z,3.9
2019-03-05T02:56:09.165Z,3.9
2019-03-05T02:57:16.375Z,3.9
2019-03-05T02:58:23.313Z,3.9
2019-03-05T02:59:30.547Z,3.9
2019-03-05T03:00:37.750Z,4
2019-03-05T03:01:44.952Z,4
2019-03-05T03:02:51.907Z,4
2019-03-05T03:03:59.116Z,4
2019-03-05T03:05:06.313Z,4
2019-03-05T03:06:13.516Z,4.1
2019-03-05T03:07:20.447Z,4.1
2019-03-05T03:08:27.660Z,4.1
2019-03-05T03:09:34.634Z,4.1
2019-03-05T03:10:41.563Z,4.1
2019-03-05T03:11:48.795Z,4.1
2019-03-05T03:12:55.724Z,4.1
2019-03-05T03:14:02.863Z,4.1
2019-03-05T03:15:10.074Z,4.1
2019-03-05T03:16:16.999Z,4.1
2019-03-05T03:17:24.204Z,4.1
2019-03-05T03:18:31.397Z,4.2
2019-03-05T03:19:38.600Z,4.2
2019-03-05T03:20:45.830Z,4.2
2019-03-05T03:21:53.064Z,4.2
2019-03-05T03:23:00.285Z,4.3
2019-03-05T03:24:07.505Z,4.3
2019-03-05T03:25:14.720Z,4.3
2019-03-05T03:26:21.923Z,4.3
2019-03-05T03:27:28.884Z,4.3
2019-03-05T03:28:36.082Z,4.3
2019-03-05T03:29:43.283Z,4.4
2019-03-05T03:30:50.494Z,4.3
2019-03-05T03:31:57.776Z,4.3
2019-03-05T03:33:04.724Z,4.4
2019-03-05T03:34:12.113Z,4.4
2019-03-05T03:35:19.047Z,4.4
2019-03-05T03:36:25.974Z,4.4
2019-03-05T03:37:32.911Z,4.4
2019-03-05T03:38:39.874Z,4.4
2019-03-05T03:39:47.074Z,4.4
2019-03-05T03:40:54.513Z,4.5
2019-03-05T03:42:01.709Z,4.5
2019-03-05T03:43:08.911Z,4.5
2019-03-05T03:44:16.109Z,4.5
2019-03-05T03:45:23.309Z,4.5
2019-03-05T03:46:30.528Z,4.5
2019-03-05T03:47:37.725Z,4.5
2019-03-05T03:48:44.930Z,4.5
2019-03-05T03:49:52.127Z,4.5
2019-03-05T03:50:59.059Z,4.5
2019-03-05T03:52:06.286Z,4.5
2019-03-05T03:53:13.485Z,4.5
2019-03-05T03:54:20.691Z,4.4
2019-03-05T03:55:27.913Z,4.4
2019-03-05T03:56:34.836Z,4.4
2019-03-05T03:57:42.032Z,4.4
2019-03-05T03:58:49.243Z,4.4
2019-03-05T03:59:56.434Z,4.4
2019-03-05T04:01:06.732Z,4.4
2019-03-05T04:02:14.168Z,4.4
2019-03-05T04:03:21.090Z,4.4
2019-03-05T04:04:28.291Z,4.4
2019-03-05T04:05:35.238Z,4.3
2019-03-05T04:06:42.447Z,4.3
2019-03-05T04:07:49.666Z,4.3
2019-03-05T04:08:56.631Z,4.3
2019-03-05T04:10:03.555Z,4.3
2019-03-05T04:11:10.478Z,4.3
2019-03-05T04:12:17.422Z,4.3
2019-03-05T04:13:24.619Z,4.2
2019-03-05T04:14:31.824Z,4.2
2019-03-05T04:15:38.745Z,4.2
2019-03-05T04:16:45.408Z,4.2
2019-03-05T04:17:52.344Z,4.2
2019-03-05T04:18:59.615Z,4.2
2019-03-05T04:20:06.820Z,4.2
2019-03-05T04:21:13.750Z,4.3
2019-03-05T04:22:20.953Z,4.3
2019-03-05T04:23:28.152Z,4.3
2019-03-05T04:24:35.382Z,4.3
2019-03-05T04:25:42.591Z,4.3
2019-03-05T04:26:49.793Z,4.3
2019-03-05T04:27:57.008Z,4.3
2019-03-05T04:29:04.233Z,4.4
2019-03-05T04:30:11.452Z,4.4
2019-03-05T04:31:18.655Z,4.4
2019-03-05T04:32:25.857Z,4.4
2019-03-05T04:33:33.083Z,4.4
2019-03-05T04:34:39.736Z,4.3
2019-03-05T04:35:46.952Z,4.4
2019-03-05T04:36:54.146Z,4.4
2019-03-05T04:38:01.364Z,4.5
2019-03-05T04:39:08.566Z,4.4
2019-03-05T04:40:15.765Z,4.4
2019-03-05T04:41:22.693Z,4.4
2019-03-05T04:42:29.903Z,4.4
2019-03-05T04:43:36.856Z,4.4
2019-03-05T04:44:44.063Z,4.4
2019-03-05T04:45:51.001Z,4.4
2019-03-05T04:46:57.932Z,4.4
2019-03-05T04:48:04.866Z,4.4
2019-03-05T04:49:12.065Z,4.4
2019-03-05T04:50:19.265Z,4.4
2019-03-05T04:51:26.459Z,4.4
2019-03-05T04:52:33.396Z,4.4
2019-03-05T04:53:40.603Z,4.4
2019-03-05T04:54:47.544Z,4.4
2019-03-05T04:55:54.476Z,4.5
2019-03-05T04:57:01.151Z,4.5
2019-03-05T04:58:08.359Z,4.5
2019-03-05T04:59:15.310Z,4.6
2019-03-05T05:00:22.052Z,4.6
2019-03-05T05:01:29.246Z,4.6
2019-03-05T05:02:36.446Z,4.6
2019-03-05T05:03:43.648Z,4.6
2019-03-05T05:04:50.857Z,4.6
2019-03-05T05:05:58.078Z,4.6
2019-03-05T05:07:05.015Z,4.6
2019-03-05T05:08:11.962Z,4.6
2019-03-05T05:09:19.168Z,4.6
2019-03-05T05:10:26.392Z,4.6
2019-03-05T05:11:33.591Z,4.6
2019-03-05T05:12:40.795Z,4.6
2019-03-05T05:13:47.736Z,4.6
2019-03-05T05:14:54.946Z,4.6
2019-03-05T05:16:02.137Z,4.6
2019-03-05T05:17:24.008Z,4.6
2019-03-05T05:18:30.912Z,4.7
2019-03-05T05:19:38.123Z,4.7
2019-03-05T05:20:45.347Z,4.7
2019-03-05T05:21:52.545Z,4.6
2019-03-05T05:22:59.749Z,4.6
2019-03-05T05:24:06.974Z,4.7
2019-03-05T05:25:14.181Z,4.7
2019-03-05T05:26:21.382Z,4.7
2019-03-05T05:27:28.593Z,4.6
2019-03-05T05:28:35.809Z,4.7
2019-03-05T05:29:42.744Z,4.7
2019-03-05T05:30:49.948Z,4.6
2019-03-05T05:31:58.996Z,4.6
2019-03-05T05:33:05.929Z,4.6
2019-03-05T05:34:13.130Z,4.6
2019-03-05T05:35:20.345Z,4.6
2019-03-05T05:36:27.549Z,4.6
2019-03-05T05:37:34.471Z,4.6
2019-03-05T05:38:41.678Z,4.6
2019-03-05T05:39:49.094Z,4.6
2019-03-05T05:40:56.313Z,4.6
2019-03-05T05:42:03.513Z,4.6
2019-03-05T05:43:10.438Z,4.6
2019-03-05T05:44:17.642Z,4.6
2019-03-05T05:45:24.851Z,4.6
2019-03-05T05:46:32.056Z,4.6
2019-03-05T05:47:38.986Z,4.6
2019-03-05T05:48:45.913Z,4.6
2019-03-05T05:49:53.107Z,4.5
2019-03-05T05:51:00.313Z,4.5
2019-03-05T05:52:07.520Z,4.5
2019-03-05T05:53:14.450Z,4.5
2019-03-05T05:54:21.687Z,4.5
2019-03-05T05:55:28.885Z,4.5
2019-03-05T05:56:35.806Z,4.5
2019-03-05T05:57:42.741Z,4.4
2019-03-05T05:58:49.948Z,4.4
2019-03-05T05:59:56.880Z,4.3
2019-03-05T06:01:04.313Z,4.3
2019-03-05T06:02:11.518Z,4.3
2019-03-05T06:03:18.939Z,4.3
2019-03-05T06:04:26.144Z,4.4
2019-03-05T06:05:33.584Z,4.4
2019-03-05T06:06:40.789Z,4.4
2019-03-05T06:07:47.434Z,4.4
2019-03-05T06:08:54.673Z,4.4
2019-03-05T06:10:01.382Z,4.4
2019-03-05T06:11:08.589Z,4.4
2019-03-05T06:12:15.751Z,4.4
2019-03-05T06:13:22.955Z,4.4
2019-03-05T06:14:29.956Z,4.4
2019-03-05T06:15:37.207Z,4.5
2019-03-05T06:16:44.148Z,4.6
2019-03-05T06:17:51.414Z,4.6
2019-03-05T06:18:58.337Z,4.5
2019-03-05T06:20:05.559Z,4.5
2019-03-05T06:21:12.986Z,4.5
2019-03-05T06:22:20.225Z,4.5
2019-03-05T06:23:27.661Z,4.5
2019-03-05T06:24:34.868Z,4.6
2019-03-05T06:25:42.289Z,4.6
2019-03-05T06:26:49.497Z,4.6
2019-03-05T06:27:56.695Z,4.6
2019-03-05T06:29:03.917Z,4.6
2019-03-05T06:30:11.114Z,4.6
2019-03-05T06:31:18.061Z,4.7
2019-03-05T06:32:25.275Z,4.7
2019-03-05T06:33:32.505Z,4.7
2019-03-05T06:34:39.750Z,4.7
2019-03-05T06:35:46.948Z,4.7
2019-03-05T06:36:54.192Z,4.7
2019-03-05T06:38:01.392Z,4.7
2019-03-05T06:39:08.827Z,4.7
2019-03-05T06:40:16.033Z,4.7
2019-03-05T06:41:23.231Z,4.8
2019-03-05T06:42:30.457Z,4.7
2019-03-05T06:43:37.683Z,4.8
2019-03-05T06:44:44.635Z,4.8
2019-03-05T06:45:51.841Z,4.8
2019-03-05T06:46:58.767Z,4.8
2019-03-05T06:48:06.196Z,4.8
2019-03-05T06:49:13.396Z,4.8
2019-03-05T06:50:20.557Z,4.9
2019-03-05T06:51:27.762Z,4.8
2019-03-05T06:52:34.980Z,4.9
2019-03-05T06:53:41.899Z,4.9
2019-03-05T06:54:49.107Z,4.9
2019-03-05T06:55:56.333Z,4.9
2019-03-05T06:57:03.295Z,4.9
2019-03-05T06:58:12.450Z,5
2019-03-05T06:59:19.874Z,5
2019-03-05T07:00:26.814Z,4.9
2019-03-05T07:01:34.053Z,4.9
2019-03-05T07:02:40.982Z,4.9
2019-03-05T07:03:48.189Z,5
2019-03-05T07:04:55.410Z,5
2019-03-05T07:06:02.370Z,5
2019-03-05T07:07:09.581Z,5
2019-03-05T07:08:16.800Z,5
2019-03-05T07:09:23.800Z,5
2019-03-05T07:10:31.032Z,5.1
2019-03-05T07:11:38.263Z,5
2019-03-05T07:12:45.202Z,5.1
2019-03-05T07:13:52.150Z,5.1
2019-03-05T07:14:59.583Z,5.1
2019-03-05T07:16:07.069Z,5.1
2019-03-05T07:17:14.235Z,5.1
2019-03-05T07:18:24.157Z,5.1
2019-03-05T07:19:31.593Z,5.1
2019-03-05T07:20:38.815Z,5.1
2019-03-05T07:21:46.055Z,5.1
2019-03-05T07:22:53.285Z,5.1
2019-03-05T07:24:00.225Z,5.1
2019-03-05T07:25:07.428Z,5.2
2019-03-05T07:26:14.853Z,5.2
2019-03-05T07:27:21.508Z,5.2
2019-03-05T07:28:28.950Z,5.2
2019-03-05T07:29:36.162Z,5.2
2019-03-05T07:30:43.597Z,5.2
2019-03-05T07:31:50.816Z,5.2
2019-03-05T07:32:58.049Z,5.2
2019-03-05T07:34:05.246Z,5.2
2019-03-05T07:35:12.193Z,5.3
2019-03-05T07:36:19.398Z,5.3
2019-03-05T07:37:26.354Z,5.3
2019-03-05T07:38:33.298Z,5.3
2019-03-05T07:39:40.520Z,5.3
2019-03-05T07:40:47.461Z,5.3
2019-03-05T07:41:54.681Z,5.3
2019-03-05T07:43:01.891Z,5.3
2019-03-05T07:44:09.343Z,5.3
2019-03-05T07:45:16.296Z,5.3
2019-03-05T07:46:23.524Z,5.4
2019-03-05T07:47:30.458Z,5.4
2019-03-05T07:48:37.739Z,5.4
2019-03-05T07:49:44.968Z,5.5
2019-03-05T07:50:52.401Z,5.5
2019-03-05T07:51:59.614Z,5.5
2019-03-05T07:53:06.786Z,5.5
2019-03-05T07:54:14.014Z,5.5
2019-03-05T07:55:20.945Z,5.6
2019-03-05T07:56:27.888Z,5.6
2019-03-05T07:57:35.156Z,5.6
2019-03-05T07:58:42.363Z,5.7
2019-03-05T07:59:49.314Z,5.7
2019-03-05T08:00:56.526Z,5.8
2019-03-05T08:02:03.766Z,5.8
2019-03-05T08:03:10.992Z,5.8
2019-03-05T08:04:18.208Z,5.8
2019-03-05T08:05:25.429Z,5.8
2019-03-05T08:06:32.392Z,5.8
2019-03-05T08:07:39.732Z,5.8
2019-03-05T08:08:46.936Z,5.8
2019-03-05T08:09:53.887Z,5.9
2019-03-05T08:11:01.125Z,5.9
2019-03-05T08:12:08.357Z,6
2019-03-05T08:13:15.015Z,6
2019-03-05T08:14:21.985Z,6.1
2019-03-05T08:15:29.419Z,6.2
2019-03-05T08:16:36.371Z,6.3
2019-03-05T08:17:43.856Z,6.4
2019-03-05T08:18:53.562Z,6.5
2019-03-05T08:20:01.064Z,6.6
2019-03-05T08:21:08.274Z,6.7
2019-03-05T08:22:15.506Z,6.7
2019-03-05T08:23:22.743Z,6.6
2019-03-05T08:24:29.996Z,6.5
2019-03-05T08:25:37.214Z,6.4
2019-03-05T08:26:44.656Z,6.4
2019-03-05T08:27:51.881Z,6.4
2019-03-05T08:28:59.092Z,6.4
2019-03-05T08:30:15.119Z,6.5
2019-03-05T08:31:22.367Z,6.5
2019-03-05T08:32:29.322Z,6.5
2019-03-05T08:33:36.759Z,6.5
2019-03-05T08:34:43.984Z,6.5
2019-03-05T08:35:51.462Z,6.5
2019-03-05T08:36:58.671Z,6.6
2019-03-05T08:38:05.670Z,6.6
2019-03-05T08:39:12.893Z,6.6
2019-03-05T08:40:20.118Z,6.6
2019-03-05T08:41:27.348Z,6.8
2019-03-05T08:42:34.566Z,7
2019-03-05T08:43:41.516Z,7.1
2019-03-05T08:44:51.306Z,7.3
2019-03-05T08:45:58.514Z,7.3
2019-03-05T08:47:05.965Z,7.4
2019-03-05T08:48:13.193Z,7.3
2019-03-05T08:49:20.480Z,7.4
2019-03-05T08:50:27.711Z,7.5
2019-03-05T08:51:34.943Z,7.4
2019-03-05T08:52:41.896Z,7.5
2019-03-05T08:53:50.302Z,7.5
2019-03-05T08:54:57.533Z,7.4
2019-03-05T08:56:04.752Z,7.5
2019-03-05T08:57:11.978Z,7.8
2019-03-05T08:58:19.228Z,8
2019-03-05T08:59:26.453Z,8.1
2019-03-05T09:00:33.878Z,8
2019-03-05T09:01:40.819Z,8
2019-03-05T09:02:49.590Z,7.9
2019-03-05T09:03:56.795Z,7.8
2019-03-05T09:05:04.011Z,7.9
2019-03-05T09:06:10.972Z,7.9
2019-03-05T09:07:18.199Z,7.9
2019-03-05T09:08:25.425Z,7.9
2019-03-05T09:09:32.647Z,7.8
2019-03-05T09:10:39.867Z,7.7
2019-03-05T23:00:06.464Z,0
2019-03-05T23:01:13.704Z,0
2019-03-05T23:02:20.923Z,0
2019-03-05T23:03:28.137Z,0
2019-03-05T23:04:35.345Z,-0.1
2019-03-05T23:05:42.315Z,-0.1
2019-03-05T23:06:49.517Z,-0.1
2019-03-05T23:07:56.476Z,-0.1
2019-03-05T23:09:03.686Z,-0.1
2019-03-05T23:10:11.004Z,-0.1
2019-03-05T23:11:18.052Z,-0.1
2019-03-05T23:12:25.476Z,-0.1
2019-03-05T23:13:33.054Z,-0.1
2019-03-05T23:14:40.363Z,-0.1
2019-03-05T23:15:48.016Z,-0.1
2019-03-05T23:16:55.325Z,0
2019-03-05T23:18:03.034Z,0
2019-03-05T23:19:10.674Z,0
2019-03-05T23:20:18.317Z,0
2019-03-05T23:21:26.068Z,0.1
2019-03-05T23:22:33.425Z,0.2
2019-03-05T23:23:41.423Z,0.3
2019-03-05T23:24:48.738Z,0.3
2019-03-05T23:25:56.755Z,0.2
2019-03-05T23:27:04.460Z,0.2
2019-03-05T23:28:12.358Z,0.2
2019-03-05T23:29:20.148Z,0.1
2019-03-05T23:30:27.740Z,0.1
2019-03-05T23:31:35.552Z,0.1
2019-03-05T23:32:42.957Z,0.2
2019-03-05T23:33:50.626Z,0.3
2019-03-05T23:34:58.073Z,0.3
2019-03-05T23:36:05.703Z,0.3
2019-03-05T23:37:13.650Z,0.2
2019-03-05T23:38:21.419Z,0.2
2019-03-05T23:39:29.164Z,0.2
2019-03-05T23:40:37.027Z,0.2
2019-03-05T23:41:45.130Z,0.3
2019-03-05T23:42:52.859Z,0.3
2019-03-05T23:44:00.841Z,0.2
2019-03-05T23:45:08.530Z,0.2
2019-03-05T23:46:16.137Z,0.1
2019-03-05T23:47:23.607Z,0.1
2019-03-05T23:48:31.480Z,0.1
2019-03-05T23:49:39.350Z,0.1
2019-03-05T23:50:46.914Z,0
2019-03-05T23:51:54.762Z,0
2019-03-05T23:53:02.224Z,0.1
2019-03-05T23:54:10.254Z,0.1
2019-03-05T23:55:18.030Z,0.1
2019-03-05T23:56:25.593Z,0.1
2019-03-05T23:57:33.304Z,0.1
2019-03-05T23:58:41.099Z,0
2019-03-05T23:59:48.772Z,0
